Time;durP1;ratioP1;P1;durP2;ratioP2;P2;SDS_P1;SDS_P2;PMS_P1;PMS_P2;Temp;Humidity;BMP_temperature;BMP_pressure;BME280_temperature;BME280_humidity;BME280_pressure;Samples;Min_cycle;Max_cycle;Signal;HPM_P1;HPM_P2
2021/10/03 00:01:13;;;;;;;3.30;3.00;;;;;;;;;;5092024;28;20274;-59
2021/10/03 00:03:41;;;;;;;2.73;2.53;;;;;;;;;;5114331;28;20175;-60
2021/10/03 00:06:09;;;;;;;2.80;2.50;;;;;;;;;;5110482;28;20179;-60
2021/10/03 00:08:35;;;;;;;4.57;4.13;;;;;;;;;;5110591;28;20248;-60
2021/10/03 00:11:01;;;;;;;3.30;3.00;;;;;;;;;;5109642;28;20175;-60
2021/10/03 00:13:28;;;;;;;2.83;2.50;;;;;;;;;;5110388;28;20217;-60
2021/10/03 00:15:55;;;;;;;2.90;2.70;;;;;;;;;;5108306;28;20206;-60
2021/10/03 00:18:21;;;;;;;3.20;2.90;;;;;;;;;;5111504;28;20228;-60
2021/10/03 00:20:47;;;;;;;3.10;2.80;;;;;;;;;;5089326;28;20178;-59
2021/10/03 00:23:14;;;;;;;2.90;2.70;;;;;;;;;;5090370;28;20210;-60
2021/10/03 00:25:40;;;;;;;3.43;2.60;;;;;;;;;;5080206;28;20183;-60
2021/10/03 00:28:07;;;;;;;3.77;2.93;;;;;;;;;;5112630;28;20184;-60
2021/10/03 00:30:34;;;;;;;3.00;2.77;;;;;;;;;;5100317;28;20274;-60
2021/10/03 00:33:01;;;;;;;2.73;2.53;;;;;;;;;;5112618;28;20189;-59
2021/10/03 00:35:27;;;;;;;3.13;2.20;;;;;;;;;;5109518;28;20663;-60
2021/10/03 00:37:53;;;;;;;2.90;2.70;;;;;;;;;;5092644;28;20202;-60
2021/10/03 00:40:19;;;;;;;2.83;2.63;;;;;;;;;;5086971;28;20675;-59
2021/10/03 00:42:46;;;;;;;3.07;2.73;;;;;;;;;;5110349;28;20159;-60
2021/10/03 00:45:14;;;;;;;3.10;2.80;;;;;;;;;;5111951;28;20175;-60
2021/10/03 00:47:40;;;;;;;3.17;2.20;;;;;;;;;;5088498;28;20636;-60
2021/10/03 00:50:07;;;;;;;3.13;2.40;;;;;;;;;;5088689;28;20171;-60
2021/10/03 00:52:33;;;;;;;3.20;2.60;;;;;;;;;;5110215;28;20178;-60
2021/10/03 00:54:59;;;;;;;2.60;2.40;;;;;;;;;;5089827;28;20745;-60
2021/10/03 00:57:25;;;;;;;3.00;2.63;;;;;;;;;;5108115;28;20175;-60
2021/10/03 00:59:51;;;;;;;2.63;2.43;;;;;;;;;;5109424;28;20261;-60
2021/10/03 01:02:18;;;;;;;2.50;2.30;;;;;;;;;;5076695;28;20667;-60
2021/10/03 01:04:44;;;;;;;3.70;2.40;;;;;;;;;;5099517;28;20183;-60
2021/10/03 01:07:10;;;;;;;2.57;2.30;;;;;;;;;;5095276;28;20210;-60
2021/10/03 01:09:36;;;;;;;2.30;2.00;;;;;;;;;;5110058;28;21137;-60
2021/10/03 01:12:02;;;;;;;3.00;2.33;;;;;;;;;;5088977;28;20579;-60
2021/10/03 01:14:28;;;;;;;2.37;2.17;;;;;;;;;;5107511;28;20612;-60
2021/10/03 01:16:54;;;;;;;2.00;1.90;;;;;;;;;;5090025;28;20586;-60
2021/10/03 01:19:21;;;;;;;2.60;1.90;;;;;;;;;;5080420;28;20183;-60
2021/10/03 01:21:48;;;;;;;2.77;2.43;;;;;;;;;;5110459;28;20547;-60
2021/10/03 01:24:15;;;;;;;2.90;2.00;;;;;;;;;;5090639;28;20183;-60
2021/10/03 01:26:41;;;;;;;3.07;2.00;;;;;;;;;;5088662;28;20194;-59
2021/10/03 01:29:08;;;;;;;3.87;2.30;;;;;;;;;;5092635;28;20730;-59
2021/10/03 01:31:34;;;;;;;2.67;2.20;;;;;;;;;;5106621;28;20223;-60
2021/10/03 01:34:01;;;;;;;2.60;2.40;;;;;;;;;;5108848;28;20310;-59
2021/10/03 01:36:27;;;;;;;2.70;2.50;;;;;;;;;;5108286;28;20179;-59
2021/10/03 01:38:53;;;;;;;2.83;2.53;;;;;;;;;;5089533;28;20366;-59
2021/10/03 01:41:20;;;;;;;2.47;2.27;;;;;;;;;;5086203;28;20179;-59
2021/10/03 01:43:46;;;;;;;2.40;1.90;;;;;;;;;;5084889;28;20179;-59
2021/10/03 01:46:12;;;;;;;2.60;2.40;;;;;;;;;;5088445;28;20250;-58
2021/10/03 01:48:38;;;;;;;2.37;2.00;;;;;;;;;;5108385;28;20183;-59
2021/10/03 01:51:10;;;;;;;2.33;2.13;;;;;;;;;;5088404;28;20198;-59
2021/10/03 01:53:37;;;;;;;2.50;2.30;;;;;;;;;;5087657;28;20258;-59
2021/10/03 01:56:04;;;;;;;3.07;2.40;;;;;;;;;;5104364;28;21030;-58
2021/10/03 01:58:31;;;;;;;2.77;2.50;;;;;;;;;;5107721;28;20179;-59
2021/10/03 02:00:59;;;;;;;2.70;2.50;;;;;;;;;;5088274;28;20174;-58
2021/10/03 02:03:26;;;;;;;3.57;3.37;;;;;;;;;;5089753;28;20332;-59
2021/10/03 02:05:52;;;;;;;2.50;2.30;;;;;;;;;;5088273;28;20510;-58
2021/10/03 02:08:18;;;;;;;3.03;2.53;;;;;;;;;;5087805;28;20178;-58
2021/10/03 02:10:49;;;;;;;2.70;2.50;;;;;;;;;;5104599;28;20198;-58
2021/10/03 02:13:15;;;;;;;2.80;2.60;;;;;;;;;;5086654;28;20682;-58
2021/10/03 02:15:42;;;;;;;2.13;1.93;;;;;;;;;;5088041;28;20665;-59
2021/10/03 02:18:09;;;;;;;4.23;2.47;;;;;;;;;;5103891;28;20206;-58
2021/10/03 02:20:36;;;;;;;2.57;2.27;;;;;;;;;;5080973;28;20191;-58
2021/10/03 02:23:03;;;;;;;2.20;2.10;;;;;;;;;;5088999;28;20203;-58
2021/10/03 02:25:29;;;;;;;3.13;2.10;;;;;;;;;;5083945;28;20354;-58
2021/10/03 02:27:55;;;;;;;2.47;2.27;;;;;;;;;;5075909;28;20175;-58
2021/10/03 02:30:21;;;;;;;2.83;2.07;;;;;;;;;;5102707;28;20181;-58
2021/10/03 02:32:47;;;;;;;2.30;2.10;;;;;;;;;;5087421;28;20206;-58
2021/10/03 02:35:14;;;;;;;2.67;2.47;;;;;;;;;;5056004;28;20192;-58
2021/10/03 02:37:41;;;;;;;2.80;2.00;;;;;;;;;;5103360;28;20179;-58
2021/10/03 02:40:09;;;;;;;3.13;2.50;;;;;;;;;;5079541;28;20163;-58
2021/10/03 02:42:35;;;;;;;2.27;2.07;;;;;;;;;;5106775;28;20178;-58
2021/10/03 02:45:02;;;;;;;2.50;2.30;;;;;;;;;;5086578;28;20183;-58
2021/10/03 02:47:28;;;;;;;2.27;2.07;;;;;;;;;;5088347;28;20721;-58
2021/10/03 02:49:54;;;;;;;2.30;2.10;;;;;;;;;;5072688;28;20190;-58
2021/10/03 02:52:20;;;;;;;3.63;2.50;;;;;;;;;;5110060;28;20175;-58
2021/10/03 02:54:46;;;;;;;2.63;2.43;;;;;;;;;;5108298;28;20242;-58
2021/10/03 02:57:14;;;;;;;2.70;2.50;;;;;;;;;;5091845;28;20559;-58
2021/10/03 02:59:40;;;;;;;2.60;2.40;;;;;;;;;;5108104;28;20265;-58
2021/10/03 03:02:06;;;;;;;3.37;2.40;;;;;;;;;;5097667;28;20262;-58
2021/10/03 03:04:32;;;;;;;2.60;2.40;;;;;;;;;;5111014;27;20603;-59
2021/10/03 03:06:58;;;;;;;4.03;2.53;;;;;;;;;;5100205;28;20278;-59
2021/10/03 03:09:25;;;;;;;2.73;2.30;;;;;;;;;;5086348;28;20178;-59
2021/10/03 03:11:51;;;;;;;2.80;2.60;;;;;;;;;;5105280;28;20668;-59
2021/10/03 03:14:17;;;;;;;3.67;2.67;;;;;;;;;;5109351;28;20250;-59
2021/10/03 03:16:44;;;;;;;17.67;16.87;;;;;;;;;;5110149;28;20213;-59
2021/10/03 03:19:10;;;;;;;3.37;3.10;;;;;;;;;;5092429;28;20333;-58
2021/10/03 03:21:36;;;;;;;4.27;2.50;;;;;;;;;;5106480;28;20182;-59
2021/10/03 03:24:03;;;;;;;2.67;2.47;;;;;;;;;;5110043;28;20274;-59
2021/10/03 03:26:29;;;;;;;3.50;3.00;;;;;;;;;;5107902;28;20178;-59
2021/10/03 03:28:55;;;;;;;3.17;2.90;;;;;;;;;;5108029;28;20699;-59
2021/10/03 03:31:21;;;;;;;7.60;4.30;;;;;;;;;;5102683;28;20232;-59
2021/10/03 03:33:47;;;;;;;4.03;3.20;;;;;;;;;;5109925;28;20205;-59
2021/10/03 03:36:13;;;;;;;4.80;3.30;;;;;;;;;;5109404;28;20174;-59
2021/10/03 03:38:39;;;;;;;3.73;2.80;;;;;;;;;;5110707;28;20184;-59
2021/10/03 03:41:05;;;;;;;4.10;3.70;;;;;;;;;;5088162;28;20302;-59
2021/10/03 03:43:32;;;;;;;3.43;3.13;;;;;;;;;;5104363;28;20618;-59
2021/10/03 03:45:58;;;;;;;3.03;2.83;;;;;;;;;;5103438;28;20236;-59
2021/10/03 03:48:24;;;;;;;3.40;3.10;;;;;;;;;;5092464;28;20442;-59
2021/10/03 03:50:50;;;;;;;5.20;3.63;;;;;;;;;;5088224;28;20190;-59
2021/10/03 03:53:16;;;;;;;3.40;3.10;;;;;;;;;;5109114;28;20209;-60
2021/10/03 03:55:42;;;;;;;3.90;3.50;;;;;;;;;;5081280;28;20537;-60
2021/10/03 03:58:08;;;;;;;5.70;3.33;;;;;;;;;;5090692;28;20179;-59
2021/10/03 04:00:34;;;;;;;6.10;5.60;;;;;;;;;;5102557;28;20175;-59
2021/10/03 04:03:00;;;;;;;3.77;3.40;;;;;;;;;;5091494;28;20183;-60
2021/10/03 04:05:26;;;;;;;3.67;3.37;;;;;;;;;;5109451;28;20171;-60
2021/10/03 04:07:53;;;;;;;6.80;3.50;;;;;;;;;;5091685;28;20663;-59
2021/10/03 04:10:19;;;;;;;8.60;7.90;;;;;;;;;;5088105;28;20194;-59
2021/10/03 04:12:45;;;;;;;4.90;3.33;;;;;;;;;;5083055;28;20187;-59
2021/10/03 04:15:11;;;;;;;4.03;3.30;;;;;;;;;;5109471;28;20197;-59
2021/10/03 04:17:37;;;;;;;4.57;3.43;;;;;;;;;;5088780;28;20699;-59
2021/10/03 04:20:05;;;;;;;4.73;3.63;;;;;;;;;;5091499;28;20236;-60
2021/10/03 04:22:31;;;;;;;3.70;3.40;;;;;;;;;;5107444;28;20263;-60
2021/10/03 04:24:57;;;;;;;4.53;3.50;;;;;;;;;;5108875;28;20243;-60
2021/10/03 04:27:23;;;;;;;6.07;5.47;;;;;;;;;;5109348;28;20170;-60
2021/10/03 04:29:49;;;;;;;9.47;8.87;;;;;;;;;;5100656;28;20186;-61
2021/10/03 04:32:16;;;;;;;4.87;4.20;;;;;;;;;;5098954;28;20207;-61
2021/10/03 04:34:43;;;;;;;4.10;3.63;;;;;;;;;;5092796;28;20268;-61
2021/10/03 04:37:09;;;;;;;4.00;3.70;;;;;;;;;;5110578;28;20175;-61
2021/10/03 04:39:36;;;;;;;4.80;4.10;;;;;;;;;;5090988;28;20736;-61
2021/10/03 04:42:03;;;;;;;4.27;3.97;;;;;;;;;;5108353;28;20176;-61
2021/10/03 04:44:29;;;;;;;4.77;3.63;;;;;;;;;;5102358;28;20674;-60
2021/10/03 04:46:55;;;;;;;4.63;4.03;;;;;;;;;;5108114;28;20245;-60
2021/10/03 04:49:21;;;;;;;4.80;4.30;;;;;;;;;;5108965;28;20631;-60
2021/10/03 04:51:47;;;;;;;4.03;3.73;;;;;;;;;;5080139;28;20180;-60
2021/10/03 04:54:13;;;;;;;4.50;4.10;;;;;;;;;;5103813;28;20698;-60
2021/10/03 04:56:39;;;;;;;4.60;4.20;;;;;;;;;;5083453;28;20183;-60
2021/10/03 04:59:06;;;;;;;4.60;4.10;;;;;;;;;;5098873;28;20179;-60
2021/10/03 05:01:32;;;;;;;5.97;4.40;;;;;;;;;;5108857;28;20181;-60
2021/10/03 05:03:58;;;;;;;4.47;4.17;;;;;;;;;;5110247;28;20286;-60
2021/10/03 05:06:25;;;;;;;4.67;4.23;;;;;;;;;;5091196;28;20172;-60
2021/10/03 05:08:51;;;;;;;4.80;4.33;;;;;;;;;;5091788;28;20183;-60
2021/10/03 05:11:18;;;;;;;4.70;4.30;;;;;;;;;;5107202;28;20171;-60
2021/10/03 05:13:44;;;;;;;5.43;4.90;;;;;;;;;;5107869;28;20211;-60
2021/10/03 05:16:10;;;;;;;5.28;4.78;;;;;;;;;;5075013;28;20407;-60
2021/10/03 05:18:37;;;;;;;4.50;4.10;;;;;;;;;;5109115;28;20285;-60
2021/10/03 05:21:04;;;;;;;4.93;4.47;;;;;;;;;;5085944;28;20171;-60
2021/10/03 05:23:30;;;;;;;5.10;4.10;;;;;;;;;;5109385;28;20189;-60
2021/10/03 05:25:56;;;;;;;4.70;4.30;;;;;;;;;;5107130;28;20427;-61
2021/10/03 05:28:22;;;;;;;4.17;3.83;;;;;;;;;;5086546;28;20188;-61
2021/10/03 05:30:48;;;;;;;4.83;4.33;;;;;;;;;;5107674;28;20179;-60
2021/10/03 05:33:14;;;;;;;6.67;6.03;;;;;;;;;;5095904;28;20204;-60
2021/10/03 05:35:40;;;;;;;5.87;4.57;;;;;;;;;;5083327;28;20191;-60
2021/10/03 05:38:06;;;;;;;5.77;5.00;;;;;;;;;;5110246;28;20653;-60
2021/10/03 05:40:33;;;;;;;5.27;4.87;;;;;;;;;;5108027;28;20233;-60
2021/10/03 05:42:59;;;;;;;7.03;5.20;;;;;;;;;;5109303;28;20599;-60
2021/10/03 05:45:25;;;;;;;5.70;5.17;;;;;;;;;;5109114;28;20190;-60
2021/10/03 05:47:51;;;;;;;7.07;5.47;;;;;;;;;;5100074;28;20168;-60
2021/10/03 05:50:17;;;;;;;5.80;5.00;;;;;;;;;;5097845;28;20178;-61
2021/10/03 05:52:44;;;;;;;8.27;5.17;;;;;;;;;;5109682;28;20175;-61
2021/10/03 05:55:10;;;;;;;5.83;5.00;;;;;;;;;;5104422;28;20240;-61
2021/10/03 05:57:36;;;;;;;6.23;5.40;;;;;;;;;;5107321;28;20235;-61
2021/10/03 06:00:02;;;;;;;5.50;4.73;;;;;;;;;;5103860;28;20521;-61
2021/10/03 06:02:28;;;;;;;5.10;4.47;;;;;;;;;;5106120;28;20167;-61
2021/10/03 06:04:54;;;;;;;6.47;4.60;;;;;;;;;;5106315;28;20218;-61
2021/10/03 06:07:20;;;;;;;6.40;5.10;;;;;;;;;;5107108;28;20242;-61
2021/10/03 06:09:46;;;;;;;9.40;6.60;;;;;;;;;;5091815;28;20179;-61
2021/10/03 06:12:12;;;;;;;5.87;5.03;;;;;;;;;;5105536;28;20175;-61
2021/10/03 06:14:38;;;;;;;5.20;4.70;;;;;;;;;;5086199;28;20227;-61
2021/10/03 06:17:04;;;;;;;5.87;4.80;;;;;;;;;;5074804;28;20176;-60
2021/10/03 06:19:30;;;;;;;5.57;5.07;;;;;;;;;;5073255;28;20207;-61
2021/10/03 06:21:58;;;;;;;6.40;5.00;;;;;;;;;;5101806;28;20278;-60
2021/10/03 06:24:24;;;;;;;5.53;4.80;;;;;;;;;;5076188;28;20167;-61
2021/10/03 06:26:50;;;;;;;6.40;5.47;;;;;;;;;;5101628;28;20179;-61
2021/10/03 06:29:17;;;;;;;5.73;5.13;;;;;;;;;;5087462;28;20183;-61
2021/10/03 06:31:43;;;;;;;6.60;5.87;;;;;;;;;;5097354;28;20186;-60
2021/10/03 06:34:09;;;;;;;9.07;5.63;;;;;;;;;;5104266;28;20239;-61
2021/10/03 06:36:35;;;;;;;6.50;5.30;;;;;;;;;;5106383;28;20179;-61
2021/10/03 06:39:01;;;;;;;5.97;5.43;;;;;;;;;;5087676;28;20659;-61
2021/10/03 06:41:27;;;;;;;6.10;5.50;;;;;;;;;;5104479;28;20393;-61
2021/10/03 06:43:53;;;;;;;8.47;5.80;;;;;;;;;;5108320;28;20172;-61
2021/10/03 06:46:19;;;;;;;7.60;5.07;;;;;;;;;;5089333;28;20262;-61
2021/10/03 06:48:45;;;;;;;6.23;4.97;;;;;;;;;;5107040;28;20171;-61
2021/10/03 06:51:12;;;;;;;8.87;5.60;;;;;;;;;;5096549;28;20187;-61
2021/10/03 06:53:38;;;;;;;8.73;5.53;;;;;;;;;;5089659;28;20187;-60
2021/10/03 06:56:04;;;;;;;6.37;5.83;;;;;;;;;;5105897;28;20615;-61
2021/10/03 06:58:30;;;;;;;6.63;5.10;;;;;;;;;;5100375;28;20235;-61
2021/10/03 07:00:57;;;;;;;6.07;5.47;;;;;;;;;;5086665;28;20272;-61
2021/10/03 07:03:23;;;;;;;5.80;5.23;;;;;;;;;;5088780;28;20189;-61
2021/10/03 07:05:49;;;;;;;5.87;5.27;;;;;;;;;;5103607;28;20182;-62
2021/10/03 07:08:15;;;;;;;9.47;7.13;;;;;;;;;;5109191;28;20178;-61
2021/10/03 07:10:41;;;;;;;8.77;5.50;;;;;;;;;;5106501;28;20190;-61
2021/10/03 07:13:07;;;;;;;6.40;5.77;;;;;;;;;;5105189;28;20203;-61
2021/10/03 07:15:33;;;;;;;6.70;5.30;;;;;;;;;;5104906;28;20288;-61
2021/10/03 07:17:59;;;;;;;7.13;5.60;;;;;;;;;;5107194;28;20181;-61
2021/10/03 07:20:26;;;;;;;6.33;5.60;;;;;;;;;;5100376;28;20220;-61
2021/10/03 07:22:52;;;;;;;6.50;5.87;;;;;;;;;;5101902;28;20182;-61
2021/10/03 07:25:18;;;;;;;9.83;6.77;;;;;;;;;;5099406;28;20235;-61
2021/10/03 07:27:44;;;;;;;6.70;6.00;;;;;;;;;;5106161;28;20660;-61
2021/10/03 07:30:10;;;;;;;6.50;5.77;;;;;;;;;;5106304;28;20215;-61
2021/10/03 07:32:36;;;;;;;6.30;5.70;;;;;;;;;;5106818;28;20533;-60
2021/10/03 07:35:04;;;;;;;6.27;5.67;;;;;;;;;;5075530;28;20188;-61
2021/10/03 07:37:30;;;;;;;7.63;5.73;;;;;;;;;;5073798;28;20179;-60
2021/10/03 07:39:56;;;;;;;6.37;5.10;;;;;;;;;;5088139;28;20183;-61
2021/10/03 07:42:22;;;;;;;7.60;5.53;;;;;;;;;;5082315;28;20630;-61
2021/10/03 07:44:48;;;;;;;6.90;5.70;;;;;;;;;;5100715;28;20258;-61
2021/10/03 07:47:14;;;;;;;5.70;5.20;;;;;;;;;;5084993;28;20293;-61
2021/10/03 07:49:40;;;;;;;6.33;4.90;;;;;;;;;;5072789;28;20250;-61
2021/10/03 07:52:06;;;;;;;6.60;5.70;;;;;;;;;;5076488;28;20625;-61
2021/10/03 07:54:32;;;;;;;5.67;5.17;;;;;;;;;;5088914;28;20192;-61
2021/10/03 07:56:58;;;;;;;5.73;5.20;;;;;;;;;;5099318;28;20176;-61
2021/10/03 07:59:24;;;;;;;9.47;6.03;;;;;;;;;;5104782;28;20175;-60
2021/10/03 08:01:50;;;;;;;5.93;5.30;;;;;;;;;;5111553;28;20186;-61
2021/10/03 08:04:16;;;;;;;6.90;6.23;;;;;;;;;;5098216;28;20179;-61
2021/10/03 08:06:42;;;;;;;7.07;5.97;;;;;;;;;;5087075;28;20183;-61
2021/10/03 08:09:08;;;;;;;6.53;5.93;;;;;;;;;;5108474;28;20683;-60
2021/10/03 08:11:34;;;;;;;8.27;5.23;;;;;;;;;;5098560;28;20235;-61
2021/10/03 08:14:00;;;;;;;5.93;5.43;;;;;;;;;;5103529;28;20321;-60
2021/10/03 08:16:26;;;;;;;5.53;5.13;;;;;;;;;;5096762;28;20667;-60
2021/10/03 08:18:57;;;;;;;6.17;5.60;;;;;;;;;;5105697;28;20221;-60
2021/10/03 08:21:23;;;;;;;8.03;5.37;;;;;;;;;;5072578;28;20681;-61
2021/10/03 08:23:49;;;;;;;5.73;5.23;;;;;;;;;;5110961;28;20645;-61
2021/10/03 08:26:15;;;;;;;5.83;5.33;;;;;;;;;;5108562;28;20187;-61
2021/10/03 08:28:41;;;;;;;6.20;5.60;;;;;;;;;;5110330;28;20270;-60
2021/10/03 08:31:08;;;;;;;5.60;5.20;;;;;;;;;;5110108;28;20554;-60
2021/10/03 08:33:34;;;;;;;5.67;5.17;;;;;;;;;;5096026;28;20605;-61
2021/10/03 08:36:00;;;;;;;6.80;5.40;;;;;;;;;;5099218;28;20203;-60
2021/10/03 08:38:26;;;;;;;7.97;5.77;;;;;;;;;;5090970;28;20527;-61
2021/10/03 08:40:52;;;;;;;7.43;5.30;;;;;;;;;;5099436;28;20183;-61
2021/10/03 08:43:18;;;;;;;5.53;5.03;;;;;;;;;;5102196;28;21854;-61
2021/10/03 08:45:45;;;;;;;5.67;5.10;;;;;;;;;;5082962;28;20188;-61
2021/10/03 08:48:16;;;;;;;6.00;5.50;;;;;;;;;;5090364;28;20192;-61
2021/10/03 08:50:43;;;;;;;5.97;5.37;;;;;;;;;;5101247;28;20187;-61
2021/10/03 08:53:09;;;;;;;5.83;5.23;;;;;;;;;;5101254;28;20546;-60
2021/10/03 08:55:35;;;;;;;6.00;5.50;;;;;;;;;;5106345;28;20228;-61
2021/10/03 08:58:01;;;;;;;8.03;5.97;;;;;;;;;;5106887;28;20186;-65
2021/10/03 09:00:27;;;;;;;6.23;5.20;;;;;;;;;;5103506;28;20180;-61
2021/10/03 09:03:01;;;;;;;8.03;5.73;;;;;;;;;;5104146;28;20271;-65
2021/10/03 09:05:28;;;;;;;7.07;5.93;;;;;;;;;;5081423;28;20193;-61
2021/10/03 09:07:58;;;;;;;8.40;6.17;;;;;;;;;;5104607;28;20270;-62
2021/10/03 09:10:24;;;;;;;6.67;6.03;;;;;;;;;;5106560;28;20179;-61
2021/10/03 09:12:50;;;;;;;6.80;6.10;;;;;;;;;;5094464;28;20568;-61
2021/10/03 09:15:20;;;;;;;6.57;5.90;;;;;;;;;;5102171;28;20208;-61
2021/10/03 09:17:50;;;;;;;8.03;6.70;;;;;;;;;;5080207;28;20697;-61
2021/10/03 09:20:18;;;;;;;8.50;6.13;;;;;;;;;;5107187;28;20604;-61
2021/10/03 09:22:53;;;;;;;8.10;7.30;;;;;;;;;;5109341;28;20174;-61
2021/10/03 09:25:34;;;;;;;7.70;6.50;;;;;;;;;;5093471;28;20607;-61
2021/10/03 09:28:01;;;;;;;9.47;7.37;;;;;;;;;;5109089;27;20175;-65
2021/10/03 09:30:27;;;;;;;10.70;8.20;;;;;;;;;;5106589;28;20520;-61
2021/10/03 09:32:56;;;;;;;7.77;7.07;;;;;;;;;;5104299;28;20830;-61
2021/10/03 09:35:23;;;;;;;10.10;7.90;;;;;;;;;;5099563;27;20199;-61
2021/10/03 09:37:53;;;;;;;7.23;6.53;;;;;;;;;;5105172;27;20185;-61
2021/10/03 09:40:19;;;;;;;7.10;6.40;;;;;;;;;;5079409;28;20190;-60
2021/10/03 09:43:04;;;;;;;7.63;6.93;;;;;;;;;;5061055;28;20179;-60
2021/10/03 09:45:33;;;;;;;7.10;6.40;;;;;;;;;;5102394;28;20163;-60
2021/10/03 09:47:59;;;;;;;6.97;6.27;;;;;;;;;;5110350;28;20879;-60
2021/10/03 09:50:26;;;;;;;9.70;6.03;;;;;;;;;;5088991;28;20283;-60
2021/10/03 09:52:52;;;;;;;7.00;5.97;;;;;;;;;;5107623;28;20435;-60
2021/10/03 09:55:19;;;;;;;6.50;6.00;;;;;;;;;;5101630;28;20579;-60
2021/10/03 09:57:45;;;;;;;6.37;5.77;;;;;;;;;;5105564;28;20855;-61
2021/10/03 10:00:15;;;;;;;6.33;5.43;;;;;;;;;;5105295;28;20688;-61
2021/10/03 10:02:44;;;;;;;9.23;6.10;;;;;;;;;;5105221;28;20172;-61
2021/10/03 10:05:12;;;;;;;6.10;5.50;;;;;;;;;;5095904;28;20551;-61
2021/10/03 10:07:39;;;;;;;6.20;5.63;;;;;;;;;;5107086;28;20179;-61
2021/10/03 10:10:06;;;;;;;6.70;6.00;;;;;;;;;;5096633;28;20193;-61
2021/10/03 10:12:35;;;;;;;5.80;5.30;;;;;;;;;;5089262;28;20179;-62
2021/10/03 10:15:10;;;;;;;6.00;5.37;;;;;;;;;;5102100;28;20738;-62
2021/10/03 10:17:40;;;;;;;6.33;5.63;;;;;;;;;;5099402;27;20186;-60
2021/10/03 10:20:24;;;;;;;8.43;6.93;;;;;;;;;;5100365;28;20186;-62
2021/10/03 10:22:57;;;;;;;8.23;5.47;;;;;;;;;;5102860;28;20181;-61
2021/10/03 10:25:39;;;;;;;6.20;5.23;;;;;;;;;;5066893;28;20722;-60
2021/10/03 10:28:07;;;;;;;5.77;5.17;;;;;;;;;;5106180;28;20231;-61
2021/10/03 10:30:33;;;;;;;6.50;5.83;;;;;;;;;;5100176;28;20175;-61
2021/10/03 10:33:04;;;;;;;6.23;5.47;;;;;;;;;;5103728;28;20227;-61
2021/10/03 10:35:31;;;;;;;6.57;5.83;;;;;;;;;;5107084;28;20745;-61
2021/10/03 10:37:59;;;;;;;6.43;5.90;;;;;;;;;;5105034;28;20581;-60
2021/10/03 10:40:26;;;;;;;6.43;5.73;;;;;;;;;;5101766;28;20179;-60
2021/10/03 10:42:52;;;;;;;6.53;5.97;;;;;;;;;;5099664;28;20179;-60
2021/10/03 10:45:30;;;;;;;6.57;5.97;;;;;;;;;;5100923;28;20179;-60
2021/10/03 10:48:11;;;;;;;6.80;5.70;;;;;;;;;;5078233;28;20198;-62
2021/10/03 10:50:42;;;;;;;6.63;5.73;;;;;;;;;;5097470;28;20250;-61
2021/10/03 10:53:24;;;;;;;7.30;5.87;;;;;;;;;;5106990;28;20178;-61
2021/10/03 10:56:09;;;;;;;6.00;5.50;;;;;;;;;;5100743;28;20214;-62
2021/10/03 10:58:37;;;;;;;6.10;5.43;;;;;;;;;;5104143;28;20208;-60
2021/10/03 11:01:05;;;;;;;6.20;5.60;;;;;;;;;;5104624;28;20182;-61
2021/10/03 11:03:43;;;;;;;8.40;5.10;;;;;;;;;;5106151;28;20187;-61
2021/10/03 11:06:14;;;;;;;10.90;5.50;;;;;;;;;;5103510;28;20185;-59
2021/10/03 11:09:06;;;;;;;5.93;5.33;;;;;;;;;;5105842;28;20187;-60
2021/10/03 11:11:36;;;;;;;6.73;5.27;;;;;;;;;;5099169;28;20188;-60
2021/10/03 11:14:05;;;;;;;5.33;4.83;;;;;;;;;;5107264;28;20271;-60
2021/10/03 11:16:33;;;;;;;9.87;5.13;;;;;;;;;;5104292;28;20175;-60
2021/10/03 11:19:04;;;;;;;5.80;5.20;;;;;;;;;;5110400;28;20177;-60
2021/10/03 11:21:31;;;;;;;5.93;5.27;;;;;;;;;;5109977;27;20237;-60
2021/10/03 11:23:58;;;;;;;9.40;5.17;;;;;;;;;;5110892;27;20178;-61
2021/10/03 11:26:24;;;;;;;6.80;6.20;;;;;;;;;;5109529;28;20661;-61
2021/10/03 11:28:54;;;;;;;7.30;6.60;;;;;;;;;;5112131;28;20179;-61
2021/10/03 11:31:54;;;;;;;8.97;6.80;;;;;;;;;;5088503;28;20187;-61
2021/10/03 11:34:32;;;;;;;7.17;6.57;;;;;;;;;;5037600;28;20215;-62
2021/10/03 11:36:59;;;;;;;6.93;6.33;;;;;;;;;;5108522;28;20668;-62
2021/10/03 11:39:34;;;;;;;8.70;7.90;;;;;;;;;;5110009;28;20191;-61
2021/10/03 11:42:01;;;;;;;9.23;8.43;;;;;;;;;;5102821;28;20186;-64
2021/10/03 11:44:27;;;;;;;40.17;34.20;;;;;;;;;;5103883;28;20481;-65
2021/10/03 11:46:58;;;;;;;51.17;42.93;;;;;;;;;;5108332;28;20267;-65
2021/10/03 11:49:28;;;;;;;56.47;41.43;;;;;;;;;;5085613;28;20184;-62
2021/10/03 11:51:57;;;;;;;66.27;55.03;;;;;;;;;;5103944;27;20653;-65
2021/10/03 11:54:33;;;;;;;73.17;53.40;;;;;;;;;;5103520;27;20280;-61
2021/10/03 11:57:13;;;;;;;74.30;54.90;;;;;;;;;;5087575;28;20214;-60
2021/10/03 11:59:39;;;;;;;81.47;59.03;;;;;;;;;;5101574;28;20205;-61
2021/10/03 12:02:31;;;;;;;67.17;54.67;;;;;;;;;;5107707;28;20171;-61
2021/10/03 12:04:58;;;;;;;71.80;55.97;;;;;;;;;;5085570;28;20201;-61
2021/10/03 12:07:25;;;;;;;73.53;56.40;;;;;;;;;;5110197;28;20190;-61
2021/10/03 12:10:01;;;;;;;80.10;55.50;;;;;;;;;;5089830;28;20183;-62
2021/10/03 12:12:47;;;;;;;63.33;47.83;;;;;;;;;;5111635;28;20661;-61
2021/10/03 12:15:32;;;;;;;38.90;34.20;;;;;;;;;;5108188;28;20285;-61
2021/10/03 12:17:58;;;;;;;37.40;33.27;;;;;;;;;;5090857;28;20183;-61
2021/10/03 12:20:24;;;;;;;40.77;33.77;;;;;;;;;;5107118;27;20179;-60
2021/10/03 12:22:54;;;;;;;36.73;28.83;;;;;;;;;;5087073;28;20167;-60
2021/10/03 12:25:20;;;;;;;34.47;28.90;;;;;;;;;;5104488;28;20563;-61
2021/10/03 12:27:59;;;;;;;29.37;24.70;;;;;;;;;;5089233;28;20179;-61
2021/10/03 12:30:25;;;;;;;25.80;23.10;;;;;;;;;;5107732;28;20186;-61
2021/10/03 12:33:01;;;;;;;24.63;20.47;;;;;;;;;;5090342;27;20207;-61
2021/10/03 12:35:27;;;;;;;23.97;21.37;;;;;;;;;;5104076;27;20217;-61
2021/10/03 12:37:53;;;;;;;22.27;19.33;;;;;;;;;;5107948;28;20231;-61
2021/10/03 12:40:22;;;;;;;20.30;18.20;;;;;;;;;;5084100;28;20250;-61
2021/10/03 12:42:49;;;;;;;18.10;16.20;;;;;;;;;;5106659;28;20171;-62
2021/10/03 12:45:16;;;;;;;17.10;14.63;;;;;;;;;;5090080;28;20595;-61
2021/10/03 12:47:42;;;;;;;15.13;13.53;;;;;;;;;;5092688;28;20217;-61
2021/10/03 12:50:09;;;;;;;13.40;12.07;;;;;;;;;;5108992;28;20182;-61
2021/10/03 12:52:35;;;;;;;13.20;11.90;;;;;;;;;;5107787;28;20190;-61
2021/10/03 12:55:01;;;;;;;13.10;11.70;;;;;;;;;;5108800;28;20225;-61
2021/10/03 12:57:27;;;;;;;11.90;10.73;;;;;;;;;;5102784;28;20210;-61
2021/10/03 12:59:53;;;;;;;11.37;10.27;;;;;;;;;;5109819;28;20687;-61
2021/10/03 13:02:19;;;;;;;11.77;10.50;;;;;;;;;;5110575;28;20171;-61
2021/10/03 13:04:45;;;;;;;10.13;9.03;;;;;;;;;;5107215;28;20550;-62
2021/10/03 13:07:11;;;;;;;10.40;9.07;;;;;;;;;;5110629;28;20524;-61
2021/10/03 13:09:39;;;;;;;9.33;8.43;;;;;;;;;;5092053;28;20191;-61
2021/10/03 13:12:05;;;;;;;9.53;8.63;;;;;;;;;;5109546;28;20609;-61
2021/10/03 13:14:31;;;;;;;8.27;7.37;;;;;;;;;;5090764;28;20230;-61
2021/10/03 13:16:57;;;;;;;9.10;6.73;;;;;;;;;;5110730;28;20179;-61
2021/10/03 13:19:23;;;;;;;8.53;7.67;;;;;;;;;;5107755;28;20205;-61
2021/10/03 13:21:49;;;;;;;8.57;6.93;;;;;;;;;;5088761;28;20306;-62
2021/10/03 13:24:15;;;;;;;6.93;6.23;;;;;;;;;;5108347;28;20685;-62
2021/10/03 13:26:42;;;;;;;7.40;6.63;;;;;;;;;;5101894;28;20258;-61
2021/10/03 13:29:08;;;;;;;6.83;6.13;;;;;;;;;;5091862;28;20171;-61
2021/10/03 13:31:34;;;;;;;6.60;6.00;;;;;;;;;;5103049;28;20214;-61
2021/10/03 13:34:01;;;;;;;6.87;6.00;;;;;;;;;;5101386;28;20188;-61
2021/10/03 13:36:27;;;;;;;6.30;5.70;;;;;;;;;;5107646;28;20218;-62
2021/10/03 13:38:53;;;;;;;7.03;6.30;;;;;;;;;;5107341;28;20274;-61
2021/10/03 13:41:20;;;;;;;7.57;5.63;;;;;;;;;;5089920;28;20210;-62
2021/10/03 13:43:46;;;;;;;6.60;6.00;;;;;;;;;;5104636;28;20211;-61
2021/10/03 13:46:13;;;;;;;6.67;6.07;;;;;;;;;;5092609;28;20183;-61
2021/10/03 13:48:40;;;;;;;6.13;5.53;;;;;;;;;;5109640;28;20179;-61
2021/10/03 13:51:07;;;;;;;6.00;5.50;;;;;;;;;;5085160;28;20189;-61
2021/10/03 13:53:33;;;;;;;7.07;5.73;;;;;;;;;;5109429;28;20179;-61
2021/10/03 13:55:59;;;;;;;5.53;5.03;;;;;;;;;;5083541;28;20695;-62
2021/10/03 13:58:25;;;;;;;6.07;5.47;;;;;;;;;;5096664;28;20183;-61
2021/10/03 14:00:51;;;;;;;6.30;5.70;;;;;;;;;;5088581;28;20197;-61
2021/10/03 14:03:17;;;;;;;7.03;6.43;;;;;;;;;;5102452;28;20677;-62
2021/10/03 14:05:44;;;;;;;6.30;5.70;;;;;;;;;;5105509;28;20179;-62
2021/10/03 14:08:10;;;;;;;5.73;5.20;;;;;;;;;;5099952;28;20590;-62
2021/10/03 14:10:36;;;;;;;5.67;5.17;;;;;;;;;;5085007;28;20222;-62
2021/10/03 14:13:02;;;;;;;6.07;5.17;;;;;;;;;;5077400;28;20187;-62
2021/10/03 14:15:28;;;;;;;5.53;5.03;;;;;;;;;;5085096;28;20208;-61
2021/10/03 14:17:54;;;;;;;4.93;4.53;;;;;;;;;;5104537;28;20187;-62
2021/10/03 14:20:21;;;;;;;6.50;5.87;;;;;;;;;;5102044;28;20187;-62
2021/10/03 14:22:48;;;;;;;5.53;5.03;;;;;;;;;;5095503;28;20598;-62
2021/10/03 14:25:14;;;;;;;4.93;4.53;;;;;;;;;;5104981;28;20630;-61
2021/10/03 14:27:40;;;;;;;4.70;4.27;;;;;;;;;;5104311;28;20179;-61
2021/10/03 14:30:07;;;;;;;5.80;4.37;;;;;;;;;;5092213;28;20729;-61
2021/10/03 14:32:33;;;;;;;4.27;3.97;;;;;;;;;;5109347;28;20561;-61
2021/10/03 14:34:59;;;;;;;4.93;4.23;;;;;;;;;;5089729;28;21513;-62
2021/10/03 14:37:25;;;;;;;5.03;4.53;;;;;;;;;;5106613;28;20183;-62
2021/10/03 14:39:51;;;;;;;4.20;3.67;;;;;;;;;;5105882;28;20187;-62
2021/10/03 14:42:17;;;;;;;3.97;3.57;;;;;;;;;;5104335;28;20229;-61